sensor_id;sensor_type;location;lat;lon;timestamp;P1;durP1;ratioP1;P2;durP2;ratioP2
6642;SDS011;3357;48.050;7.800;2023-12-14T00:01:24;2.73;;;0.80;;
6642;SDS011;3357;48.050;7.800;2023-12-14T00:03:49;1.50;;;0.80;;
6642;SDS011;3357;48.050;7.800;2023-12-14T00:06:14;4.00;;;0.90;;
6642;SDS011;3357;48.050;7.800;2023-12-14T00:08:40;1.37;;;0.90;;
6642;SDS011;3357;48.050;7.800;2023-12-14T00:11:05;1.40;;;1.10;;
6642;SDS011;3357;48.050;7.800;2023-12-14T00:13:31;1.27;;;0.93;;
6642;SDS011;3357;48.050;7.800;2023-12-14T00:15:57;1.43;;;0.90;;
6642;SDS011;3357;48.050;7.800;2023-12-14T00:18:22;0.80;;;0.80;;
6642;SDS011;3357;48.050;7.800;2023-12-14T00:20:47;6.10;;;0.90;;
6642;SDS011;3357;48.050;7.800;2023-12-14T00:23:13;0.90;;;0.90;;
6642;SDS011;3357;48.050;7.800;2023-12-14T00:25:38;2.13;;;0.97;;
6642;SDS011;3357;48.050;7.800;2023-12-14T00:28:04;2.10;;;1.00;;
6642;SDS011;3357;48.050;7.800;2023-12-14T00:30:29;1.00;;;1.00;;
6642;SDS011;3357;48.050;7.800;2023-12-14T00:32:55;1.03;;;1.00;;
6642;SDS011;3357;48.050;7.800;2023-12-14T00:35:20;3.13;;;1.10;;
6642;SDS011;3357;48.050;7.800;2023-12-14T00:37:45;2.07;;;0.93;;
6642;SDS011;3357;48.050;7.800;2023-12-14T00:40:10;1.57;;;1.03;;
6642;SDS011;3357;48.050;7.800;2023-12-14T00:42:36;1.00;;;1.00;;
6642;SDS011;3357;48.050;7.800;2023-12-14T00:45:01;5.60;;;1.33;;
6642;SDS011;3357;48.050;7.800;2023-12-14T00:47:27;1.33;;;1.23;;
6642;SDS011;3357;48.050;7.800;2023-12-14T00:49:52;2.30;;;1.20;;
6642;SDS011;3357;48.050;7.800;2023-12-14T00:52:17;2.53;;;1.23;;
6642;SDS011;3357;48.050;7.800;2023-12-14T00:54:42;2.53;;;1.17;;
6642;SDS011;3357;48.050;7.800;2023-12-14T00:57:08;4.03;;;1.53;;
6642;SDS011;3357;48.050;7.800;2023-12-14T00:59:33;2.07;;;1.23;;
6642;SDS011;3357;48.050;7.800;2023-12-14T01:01:58;1.00;;;1.00;;
6642;SDS011;3357;48.050;7.800;2023-12-14T01:04:23;3.10;;;1.07;;
6642;SDS011;3357;48.050;7.800;2023-12-14T01:06:49;1.67;;;1.40;;
6642;SDS011;3357;48.050;7.800;2023-12-14T01:09:14;4.20;;;1.27;;
6642;SDS011;3357;48.050;7.800;2023-12-14T01:11:39;2.40;;;1.30;;
6642;SDS011;3357;48.050;7.800;2023-12-14T01:14:04;1.30;;;1.20;;
6642;SDS011;3357;48.050;7.800;2023-12-14T01:16:29;1.37;;;1.10;;
6642;SDS011;3357;48.050;7.800;2023-12-14T01:18:55;1.23;;;1.07;;
6642;SDS011;3357;48.050;7.800;2023-12-14T01:21:20;1.70;;;1.40;;
6642;SDS011;3357;48.050;7.800;2023-12-14T01:23:45;1.67;;;1.10;;
6642;SDS011;3357;48.050;7.800;2023-12-14T01:26:11;1.67;;;1.20;;
6642;SDS011;3357;48.050;7.800;2023-12-14T01:28:36;1.17;;;1.07;;
6642;SDS011;3357;48.050;7.800;2023-12-14T01:31:01;2.03;;;1.20;;
6642;SDS011;3357;48.050;7.800;2023-12-14T01:33:26;2.00;;;1.13;;
6642;SDS011;3357;48.050;7.800;2023-12-14T01:35:52;1.30;;;1.13;;
6642;SDS011;3357;48.050;7.800;2023-12-14T01:38:17;0.90;;;0.90;;
6642;SDS011;3357;48.050;7.800;2023-12-14T01:40:42;2.20;;;1.20;;
6642;SDS011;3357;48.050;7.800;2023-12-14T01:43:08;1.50;;;1.40;;
6642;SDS011;3357;48.050;7.800;2023-12-14T01:45:37;1.20;;;1.20;;
6642;SDS011;3357;48.050;7.800;2023-12-14T01:48:02;1.73;;;0.97;;
6642;SDS011;3357;48.050;7.800;2023-12-14T01:50:28;2.80;;;1.30;;
6642;SDS011;3357;48.050;7.800;2023-12-14T01:52:53;1.43;;;1.00;;
6642;SDS011;3357;48.050;7.800;2023-12-14T01:55:19;5.03;;;1.10;;
6642;SDS011;3357;48.050;7.800;2023-12-14T01:57:45;1.70;;;1.10;;
6642;SDS011;3357;48.050;7.800;2023-12-14T02:00:13;1.47;;;1.03;;
6642;SDS011;3357;48.050;7.800;2023-12-14T02:03:01;3.40;;;1.50;;
6642;SDS011;3357;48.050;7.800;2023-12-14T02:05:26;1.00;;;1.00;;
6642;SDS011;3357;48.050;7.800;2023-12-14T02:07:51;3.73;;;1.27;;
6642;SDS011;3357;48.050;7.800;2023-12-14T02:10:17;2.90;;;1.30;;
6642;SDS011;3357;48.050;7.800;2023-12-14T02:12:42;1.20;;;1.20;;
6642;SDS011;3357;48.050;7.800;2023-12-14T02:15:08;1.80;;;1.33;;
6642;SDS011;3357;48.050;7.800;2023-12-14T02:17:34;4.67;;;1.47;;
6642;SDS011;3357;48.050;7.800;2023-12-14T02:19:59;3.63;;;1.60;;
6642;SDS011;3357;48.050;7.800;2023-12-14T02:22:25;4.40;;;1.67;;
6642;SDS011;3357;48.050;7.800;2023-12-14T02:24:50;1.70;;;1.60;;
6642;SDS011;3357;48.050;7.800;2023-12-14T02:27:16;1.50;;;1.40;;
6642;SDS011;3357;48.050;7.800;2023-12-14T02:29:41;1.60;;;1.50;;
6642;SDS011;3357;48.050;7.800;2023-12-14T02:32:06;2.00;;;1.67;;
6642;SDS011;3357;48.050;7.800;2023-12-14T02:34:31;1.90;;;1.80;;
6642;SDS011;3357;48.050;7.800;2023-12-14T02:36:57;1.87;;;1.47;;
6642;SDS011;3357;48.050;7.800;2023-12-14T02:39:22;4.97;;;2.00;;
6642;SDS011;3357;48.050;7.800;2023-12-14T02:41:47;5.53;;;1.40;;
6642;SDS011;3357;48.050;7.800;2023-12-14T02:44:12;1.63;;;1.53;;
6642;SDS011;3357;48.050;7.800;2023-12-14T02:46:38;6.20;;;1.90;;
6642;SDS011;3357;48.050;7.800;2023-12-14T02:49:03;2.70;;;1.93;;
6642;SDS011;3357;48.050;7.800;2023-12-14T02:51:28;2.80;;;1.70;;
6642;SDS011;3357;48.050;7.800;2023-12-14T02:53:53;1.70;;;1.60;;
6642;SDS011;3357;48.050;7.800;2023-12-14T02:56:22;2.00;;;1.90;;
6642;SDS011;3357;48.050;7.800;2023-12-14T02:58:47;3.40;;;2.00;;
6642;SDS011;3357;48.050;7.800;2023-12-14T03:01:18;3.63;;;1.73;;
6642;SDS011;3357;48.050;7.800;2023-12-14T03:03:43;3.67;;;1.57;;
6642;SDS011;3357;48.050;7.800;2023-12-14T03:06:09;1.70;;;1.60;;
6642;SDS011;3357;48.050;7.800;2023-12-14T03:08:34;4.27;;;1.80;;
6642;SDS011;3357;48.050;7.800;2023-12-14T03:10:59;1.67;;;1.57;;
6642;SDS011;3357;48.050;7.800;2023-12-14T03:13:25;1.53;;;1.43;;
6642;SDS011;3357;48.050;7.800;2023-12-14T03:15:50;1.53;;;1.40;;
6642;SDS011;3357;48.050;7.800;2023-12-14T03:18:15;3.80;;;1.83;;
6642;SDS011;3357;48.050;7.800;2023-12-14T03:20:41;1.90;;;1.50;;
6642;SDS011;3357;48.050;7.800;2023-12-14T03:23:06;1.43;;;1.33;;
6642;SDS011;3357;48.050;7.800;2023-12-14T03:25:31;1.47;;;1.37;;
6642;SDS011;3357;48.050;7.800;2023-12-14T03:27:56;2.70;;;1.40;;
6642;SDS011;3357;48.050;7.800;2023-12-14T03:30:22;1.87;;;1.10;;
6642;SDS011;3357;48.050;7.800;2023-12-14T03:32:47;2.00;;;1.60;;
6642;SDS011;3357;48.050;7.800;2023-12-14T03:35:12;5.33;;;1.67;;
6642;SDS011;3357;48.050;7.800;2023-12-14T03:37:37;2.80;;;2.10;;
6642;SDS011;3357;48.050;7.800;2023-12-14T03:40:03;1.87;;;1.77;;
6642;SDS011;3357;48.050;7.800;2023-12-14T03:42:28;1.97;;;1.40;;
6642;SDS011;3357;48.050;7.800;2023-12-14T03:44:54;6.10;;;1.87;;
6642;SDS011;3357;48.050;7.800;2023-12-14T03:47:19;1.83;;;1.60;;
6642;SDS011;3357;48.050;7.800;2023-12-14T03:49:44;2.83;;;1.30;;
6642;SDS011;3357;48.050;7.800;2023-12-14T03:52:09;1.43;;;1.30;;
6642;SDS011;3357;48.050;7.800;2023-12-14T03:54:35;1.40;;;1.30;;
6642;SDS011;3357;48.050;7.800;2023-12-14T03:57:00;2.10;;;1.20;;
6642;SDS011;3357;48.050;7.800;2023-12-14T03:59:25;1.30;;;1.20;;
6642;SDS011;3357;48.050;7.800;2023-12-14T04:01:50;1.67;;;1.40;;
6642;SDS011;3357;48.050;7.800;2023-12-14T04:04:16;2.40;;;1.30;;
6642;SDS011;3357;48.050;7.800;2023-12-14T04:06:41;1.67;;;1.30;;
6642;SDS011;3357;48.050;7.800;2023-12-14T04:09:06;1.73;;;1.63;;
6642;SDS011;3357;48.050;7.800;2023-12-14T04:11:31;2.73;;;1.57;;
6642;SDS011;3357;48.050;7.800;2023-12-14T04:13:57;1.57;;;1.47;;
6642;SDS011;3357;48.050;7.800;2023-12-14T04:16:23;1.60;;;1.30;;
6642;SDS011;3357;48.050;7.800;2023-12-14T04:18:48;3.33;;;2.40;;
6642;SDS011;3357;48.050;7.800;2023-12-14T04:21:14;1.63;;;1.53;;
6642;SDS011;3357;48.050;7.800;2023-12-14T04:23:39;3.63;;;1.70;;
6642;SDS011;3357;48.050;7.800;2023-12-14T04:26:04;1.40;;;1.30;;
6642;SDS011;3357;48.050;7.800;2023-12-14T04:28:29;1.70;;;1.60;;
6642;SDS011;3357;48.050;7.800;2023-12-14T04:30:55;1.43;;;1.33;;
6642;SDS011;3357;48.050;7.800;2023-12-14T04:33:20;1.47;;;1.20;;
6642;SDS011;3357;48.050;7.800;2023-12-14T04:35:45;1.50;;;1.40;;
6642;SDS011;3357;48.050;7.800;2023-12-14T04:38:11;1.87;;;1.23;;
6642;SDS011;3357;48.050;7.800;2023-12-14T04:40:36;3.67;;;1.73;;
6642;SDS011;3357;48.050;7.800;2023-12-14T04:43:01;1.90;;;1.80;;
6642;SDS011;3357;48.050;7.800;2023-12-14T04:45:27;2.30;;;1.30;;
6642;SDS011;3357;48.050;7.800;2023-12-14T04:47:52;1.00;;;1.00;;
6642;SDS011;3357;48.050;7.800;2023-12-14T04:50:18;1.50;;;1.20;;
6642;SDS011;3357;48.050;7.800;2023-12-14T04:52:43;4.40;;;1.50;;
6642;SDS011;3357;48.050;7.800;2023-12-14T04:55:08;1.37;;;1.27;;
6642;SDS011;3357;48.050;7.800;2023-12-14T04:57:34;1.60;;;1.20;;
6642;SDS011;3357;48.050;7.800;2023-12-14T04:59:59;1.70;;;1.23;;
6642;SDS011;3357;48.050;7.800;2023-12-14T05:02:24;5.07;;;1.40;;
6642;SDS011;3357;48.050;7.800;2023-12-14T05:04:50;2.47;;;1.83;;
6642;SDS011;3357;48.050;7.800;2023-12-14T05:07:15;1.77;;;1.37;;
6642;SDS011;3357;48.050;7.800;2023-12-14T05:09:40;1.40;;;1.30;;
6642;SDS011;3357;48.050;7.800;2023-12-14T05:12:06;1.30;;;1.20;;
6642;SDS011;3357;48.050;7.800;2023-12-14T05:14:31;2.00;;;1.20;;
6642;SDS011;3357;48.050;7.800;2023-12-14T05:16:56;1.93;;;1.70;;
6642;SDS011;3357;48.050;7.800;2023-12-14T05:19:22;3.83;;;1.37;;
6642;SDS011;3357;48.050;7.800;2023-12-14T05:21:47;2.10;;;2.00;;
6642;SDS011;3357;48.050;7.800;2023-12-14T05:24:12;1.50;;;1.40;;
6642;SDS011;3357;48.050;7.800;2023-12-14T05:26:38;5.60;;;1.37;;
6642;SDS011;3357;48.050;7.800;2023-12-14T05:29:03;1.20;;;1.10;;
6642;SDS011;3357;48.050;7.800;2023-12-14T05:31:28;2.70;;;1.23;;
6642;SDS011;3357;48.050;7.800;2023-12-14T05:33:53;4.73;;;1.90;;
6642;SDS011;3357;48.050;7.800;2023-12-14T05:36:19;2.37;;;1.80;;
6642;SDS011;3357;48.050;7.800;2023-12-14T05:38:44;6.00;;;1.40;;
6642;SDS011;3357;48.050;7.800;2023-12-14T05:41:09;1.60;;;1.50;;
6642;SDS011;3357;48.050;7.800;2023-12-14T05:43:35;3.27;;;1.70;;
6642;SDS011;3357;48.050;7.800;2023-12-14T05:46:01;1.50;;;1.40;;
6642;SDS011;3357;48.050;7.800;2023-12-14T05:48:26;2.00;;;1.60;;
6642;SDS011;3357;48.050;7.800;2023-12-14T05:50:53;1.77;;;1.67;;
6642;SDS011;3357;48.050;7.800;2023-12-14T05:53:18;1.77;;;1.20;;
6642;SDS011;3357;48.050;7.800;2023-12-14T05:55:44;1.57;;;1.10;;
6642;SDS011;3357;48.050;7.800;2023-12-14T05:58:09;7.03;;;2.07;;
6642;SDS011;3357;48.050;7.800;2023-12-14T06:00:35;4.10;;;1.30;;
6642;SDS011;3357;48.050;7.800;2023-12-14T06:03:01;1.43;;;1.33;;
6642;SDS011;3357;48.050;7.800;2023-12-14T06:05:26;1.87;;;1.57;;
6642;SDS011;3357;48.050;7.800;2023-12-14T06:07:52;3.30;;;1.80;;
6642;SDS011;3357;48.050;7.800;2023-12-14T06:10:17;1.17;;;1.13;;
6642;SDS011;3357;48.050;7.800;2023-12-14T06:12:43;3.03;;;1.47;;
6642;SDS011;3357;48.050;7.800;2023-12-14T06:15:08;1.47;;;1.37;;
6642;SDS011;3357;48.050;7.800;2023-12-14T06:17:33;1.57;;;1.37;;
6642;SDS011;3357;48.050;7.800;2023-12-14T06:19:59;1.27;;;1.17;;
6642;SDS011;3357;48.050;7.800;2023-12-14T06:22:24;2.73;;;1.73;;
6642;SDS011;3357;48.050;7.800;2023-12-14T06:24:51;1.90;;;1.20;;
6642;SDS011;3357;48.050;7.800;2023-12-14T06:27:16;1.40;;;1.20;;
6642;SDS011;3357;48.050;7.800;2023-12-14T06:29:41;2.20;;;1.20;;
6642;SDS011;3357;48.050;7.800;2023-12-14T06:32:06;2.67;;;1.67;;
6642;SDS011;3357;48.050;7.800;2023-12-14T06:34:32;3.60;;;1.60;;
6642;SDS011;3357;48.050;7.800;2023-12-14T06:36:57;1.40;;;1.30;;
6642;SDS011;3357;48.050;7.800;2023-12-14T06:39:24;1.67;;;1.33;;
6642;SDS011;3357;48.050;7.800;2023-12-14T06:41:51;1.30;;;1.20;;
6642;SDS011;3357;48.050;7.800;2023-12-14T06:44:17;2.20;;;1.40;;
6642;SDS011;3357;48.050;7.800;2023-12-14T06:46:43;1.37;;;1.27;;
6642;SDS011;3357;48.050;7.800;2023-12-14T06:49:08;4.93;;;2.03;;
6642;SDS011;3357;48.050;7.800;2023-12-14T06:51:33;2.73;;;1.80;;
6642;SDS011;3357;48.050;7.800;2023-12-14T06:53:58;9.70;;;2.10;;
6642;SDS011;3357;48.050;7.800;2023-12-14T06:56:24;2.70;;;1.57;;
6642;SDS011;3357;48.050;7.800;2023-12-14T06:58:49;1.80;;;1.70;;
6642;SDS011;3357;48.050;7.800;2023-12-14T07:01:15;1.77;;;1.67;;
6642;SDS011;3357;48.050;7.800;2023-12-14T07:03:41;2.43;;;1.73;;
6642;SDS011;3357;48.050;7.800;2023-12-14T07:06:11;2.07;;;1.50;;
6642;SDS011;3357;48.050;7.800;2023-12-14T07:08:37;1.57;;;1.47;;
6642;SDS011;3357;48.050;7.800;2023-12-14T07:11:02;3.37;;;1.40;;
6642;SDS011;3357;48.050;7.800;2023-12-14T07:13:28;1.47;;;1.37;;
6642;SDS011;3357;48.050;7.800;2023-12-14T07:15:53;1.60;;;1.50;;
6642;SDS011;3357;48.050;7.800;2023-12-14T07:18:18;2.47;;;1.40;;
6642;SDS011;3357;48.050;7.800;2023-12-14T07:20:44;3.80;;;1.60;;
6642;SDS011;3357;48.050;7.800;2023-12-14T07:23:09;2.03;;;1.30;;
6642;SDS011;3357;48.050;7.800;2023-12-14T07:25:34;2.93;;;1.43;;
6642;SDS011;3357;48.050;7.800;2023-12-14T07:27:59;7.00;;;1.73;;
6642;SDS011;3357;48.050;7.800;2023-12-14T07:30:25;1.60;;;1.50;;
6642;SDS011;3357;48.050;7.800;2023-12-14T07:32:50;1.50;;;1.40;;
6642;SDS011;3357;48.050;7.800;2023-12-14T07:35:16;2.30;;;1.67;;
6642;SDS011;3357;48.050;7.800;2023-12-14T07:37:41;1.63;;;1.20;;
6642;SDS011;3357;48.050;7.800;2023-12-14T07:40:06;2.03;;;1.57;;
6642;SDS011;3357;48.050;7.800;2023-12-14T07:42:32;1.47;;;1.37;;
6642;SDS011;3357;48.050;7.800;2023-12-14T07:44:57;2.40;;;1.40;;
6642;SDS011;3357;48.050;7.800;2023-12-14T07:47:23;1.30;;;1.23;;
6642;SDS011;3357;48.050;7.800;2023-12-14T07:49:48;1.50;;;1.40;;
6642;SDS011;3357;48.050;7.800;2023-12-14T07:52:13;6.23;;;1.40;;
6642;SDS011;3357;48.050;7.800;2023-12-14T07:54:39;1.30;;;1.20;;
6642;SDS011;3357;48.050;7.800;2023-12-14T07:57:04;1.60;;;1.40;;
6642;SDS011;3357;48.050;7.800;2023-12-14T07:59:30;1.53;;;1.23;;
6642;SDS011;3357;48.050;7.800;2023-12-14T08:01:55;3.23;;;1.37;;
6642;SDS011;3357;48.050;7.800;2023-12-14T08:04:20;3.30;;;1.50;;
6642;SDS011;3357;48.050;7.800;2023-12-14T08:06:46;2.17;;;1.00;;
6642;SDS011;3357;48.050;7.800;2023-12-14T08:09:11;1.73;;;1.30;;
6642;SDS011;3357;48.050;7.800;2023-12-14T08:11:36;5.03;;;1.20;;
6642;SDS011;3357;48.050;7.800;2023-12-14T08:14:02;1.47;;;1.20;;
6642;SDS011;3357;48.050;7.800;2023-12-14T08:16:28;1.00;;;1.00;;
6642;SDS011;3357;48.050;7.800;2023-12-14T08:18:53;1.93;;;1.50;;
6642;SDS011;3357;48.050;7.800;2023-12-14T08:21:19;1.20;;;1.10;;
6642;SDS011;3357;48.050;7.800;2023-12-14T08:23:44;1.80;;;1.67;;
6642;SDS011;3357;48.050;7.800;2023-12-14T08:26:10;1.50;;;1.40;;
6642;SDS011;3357;48.050;7.800;2023-12-14T08:28:37;1.37;;;1.20;;
6642;SDS011;3357;48.050;7.800;2023-12-14T08:31:03;1.97;;;1.30;;
6642;SDS011;3357;48.050;7.800;2023-12-14T08:33:29;1.43;;;1.33;;
6642;SDS011;3357;48.050;7.800;2023-12-14T08:35:55;1.40;;;1.30;;
6642;SDS011;3357;48.050;7.800;2023-12-14T08:38:20;1.77;;;1.57;;
6642;SDS011;3357;48.050;7.800;2023-12-14T08:40:45;2.13;;;1.90;;
6642;SDS011;3357;48.050;7.800;2023-12-14T08:43:11;2.10;;;2.00;;
6642;SDS011;3357;48.050;7.800;2023-12-14T08:45:37;4.33;;;2.47;;
6642;SDS011;3357;48.050;7.800;2023-12-14T08:48:02;2.37;;;2.17;;
6642;SDS011;3357;48.050;7.800;2023-12-14T08:50:27;2.13;;;2.03;;
6642;SDS011;3357;48.050;7.800;2023-12-14T08:52:53;2.20;;;2.00;;
6642;SDS011;3357;48.050;7.800;2023-12-14T08:55:18;2.50;;;2.00;;
6642;SDS011;3357;48.050;7.800;2023-12-14T08:57:43;3.63;;;2.20;;
6642;SDS011;3357;48.050;7.800;2023-12-14T09:00:09;6.77;;;2.93;;
6642;SDS011;3357;48.050;7.800;2023-12-14T09:02:35;4.13;;;2.70;;
6642;SDS011;3357;48.050;7.800;2023-12-14T09:05:00;9.80;;;3.57;;
6642;SDS011;3357;48.050;7.800;2023-12-14T09:07:26;4.20;;;2.70;;
6642;SDS011;3357;48.050;7.800;2023-12-14T09:09:51;3.53;;;2.90;;
6642;SDS011;3357;48.050;7.800;2023-12-14T09:12:16;4.27;;;3.00;;
6642;SDS011;3357;48.050;7.800;2023-12-14T09:14:42;3.80;;;2.80;;
6642;SDS011;3357;48.050;7.800;2023-12-14T09:17:07;3.73;;;3.30;;
6642;SDS011;3357;48.050;7.800;2023-12-14T09:19:32;3.67;;;2.90;;
6642;SDS011;3357;48.050;7.800;2023-12-14T09:21:58;3.83;;;2.90;;
6642;SDS011;3357;48.050;7.800;2023-12-14T09:24:24;3.00;;;2.70;;
6642;SDS011;3357;48.050;7.800;2023-12-14T09:26:49;9.97;;;3.93;;
6642;SDS011;3357;48.050;7.800;2023-12-14T09:29:14;3.03;;;2.83;;
6642;SDS011;3357;48.050;7.800;2023-12-14T09:31:41;4.33;;;3.43;;
6642;SDS011;3357;48.050;7.800;2023-12-14T09:34:07;3.73;;;3.13;;
6642;SDS011;3357;48.050;7.800;2023-12-14T09:36:33;4.40;;;3.63;;
6642;SDS011;3357;48.050;7.800;2023-12-14T09:38:59;4.67;;;2.80;;
6642;SDS011;3357;48.050;7.800;2023-12-14T09:41:24;3.37;;;2.83;;
6642;SDS011;3357;48.050;7.800;2023-12-14T09:43:49;8.57;;;3.00;;
6642;SDS011;3357;48.050;7.800;2023-12-14T09:46:16;2.80;;;2.60;;
6642;SDS011;3357;48.050;7.800;2023-12-14T09:48:42;3.10;;;2.80;;
6642;SDS011;3357;48.050;7.800;2023-12-14T09:51:07;3.40;;;2.47;;
6642;SDS011;3357;48.050;7.800;2023-12-14T09:53:33;2.90;;;2.70;;
6642;SDS011;3357;48.050;7.800;2023-12-14T09:55:58;4.80;;;2.87;;
6642;SDS011;3357;48.050;7.800;2023-12-14T09:58:23;3.93;;;2.80;;
6642;SDS011;3357;48.050;7.800;2023-12-14T10:00:49;5.97;;;2.60;;
6642;SDS011;3357;48.050;7.800;2023-12-14T10:03:21;4.93;;;3.17;;
6642;SDS011;3357;48.050;7.800;2023-12-14T10:05:49;3.33;;;3.03;;
6642;SDS011;3357;48.050;7.800;2023-12-14T10:08:18;3.13;;;2.83;;
6642;SDS011;3357;48.050;7.800;2023-12-14T10:10:43;3.63;;;3.33;;
6642;SDS011;3357;48.050;7.800;2023-12-14T10:13:14;3.40;;;2.70;;
6642;SDS011;3357;48.050;7.800;2023-12-14T10:15:41;3.83;;;2.77;;
6642;SDS011;3357;48.050;7.800;2023-12-14T10:18:08;3.43;;;2.90;;
6642;SDS011;3357;48.050;7.800;2023-12-14T10:20:35;5.10;;;3.60;;
6642;SDS011;3357;48.050;7.800;2023-12-14T10:23:02;4.73;;;2.70;;
6642;SDS011;3357;48.050;7.800;2023-12-14T10:25:30;2.93;;;2.60;;
6642;SDS011;3357;48.050;7.800;2023-12-14T10:27:55;2.53;;;2.37;;
6642;SDS011;3357;48.050;7.800;2023-12-14T10:30:22;2.83;;;2.50;;
6642;SDS011;3357;48.050;7.800;2023-12-14T10:32:47;4.70;;;2.90;;
6642;SDS011;3357;48.050;7.800;2023-12-14T10:35:16;2.80;;;2.60;;
6642;SDS011;3357;48.050;7.800;2023-12-14T10:37:42;2.33;;;2.17;;
6642;SDS011;3357;48.050;7.800;2023-12-14T10:40:11;3.67;;;2.90;;
6642;SDS011;3357;48.050;7.800;2023-12-14T10:42:39;2.73;;;2.53;;
6642;SDS011;3357;48.050;7.800;2023-12-14T10:45:12;5.70;;;3.00;;
6642;SDS011;3357;48.050;7.800;2023-12-14T10:47:42;3.00;;;2.80;;
6642;SDS011;3357;48.050;7.800;2023-12-14T10:50:08;4.13;;;2.73;;
6642;SDS011;3357;48.050;7.800;2023-12-14T10:52:36;3.80;;;2.60;;
6642;SDS011;3357;48.050;7.800;2023-12-14T10:55:04;4.00;;;2.80;;
6642;SDS011;3357;48.050;7.800;2023-12-14T10:57:31;2.90;;;2.43;;
6642;SDS011;3357;48.050;7.800;2023-12-14T10:59:57;3.83;;;2.93;;
6642;SDS011;3357;48.050;7.800;2023-12-14T11:02:24;9.03;;;2.97;;
6642;SDS011;3357;48.050;7.800;2023-12-14T11:04:56;4.60;;;2.53;;
6642;SDS011;3357;48.050;7.800;2023-12-14T11:07:42;3.50;;;2.30;;
6642;SDS011;3357;48.050;7.800;2023-12-14T11:10:12;3.00;;;2.63;;
6642;SDS011;3357;48.050;7.800;2023-12-14T11:12:49;2.93;;;2.73;;
6642;SDS011;3357;48.050;7.800;2023-12-14T11:15:19;6.90;;;3.00;;
6642;SDS011;3357;48.050;7.800;2023-12-14T11:18:18;5.53;;;2.60;;
6642;SDS011;3357;48.050;7.800;2023-12-14T11:23:12;3.20;;;2.90;;
6642;SDS011;3357;48.050;7.800;2023-12-14T11:25:39;3.27;;;2.27;;
6642;SDS011;3357;48.050;7.800;2023-12-14T11:28:08;3.70;;;2.60;;
6642;SDS011;3357;48.050;7.800;2023-12-14T11:30:34;3.03;;;2.73;;
6642;SDS011;3357;48.050;7.800;2023-12-14T11:33:00;2.43;;;2.10;;
6642;SDS011;3357;48.050;7.800;2023-12-14T11:35:25;5.83;;;2.30;;
6642;SDS011;3357;48.050;7.800;2023-12-14T11:37:51;7.57;;;3.03;;
6642;SDS011;3357;48.050;7.800;2023-12-14T11:40:16;2.60;;;2.40;;
6642;SDS011;3357;48.050;7.800;2023-12-14T11:42:57;2.53;;;2.40;;
6642;SDS011;3357;48.050;7.800;2023-12-14T11:45:38;2.83;;;2.63;;
6642;SDS011;3357;48.050;7.800;2023-12-14T11:48:08;4.30;;;2.30;;
6642;SDS011;3357;48.050;7.800;2023-12-14T11:50:36;3.50;;;2.50;;
6642;SDS011;3357;48.050;7.800;2023-12-14T11:53:02;2.47;;;2.37;;
6642;SDS011;3357;48.050;7.800;2023-12-14T11:55:31;3.20;;;3.00;;
6642;SDS011;3357;48.050;7.800;2023-12-14T11:57:57;2.60;;;2.33;;
6642;SDS011;3357;48.050;7.800;2023-12-14T12:00:23;3.77;;;3.00;;
6642;SDS011;3357;48.050;7.800;2023-12-14T12:05:46;3.00;;;1.80;;
6642;SDS011;3357;48.050;7.800;2023-12-14T12:08:13;2.60;;;2.40;;
6642;SDS011;3357;48.050;7.800;2023-12-14T12:10:41;3.80;;;2.27;;
6642;SDS011;3357;48.050;7.800;2023-12-14T12:13:08;2.00;;;1.90;;
6642;SDS011;3357;48.050;7.800;2023-12-14T12:15:37;1.77;;;1.67;;
6642;SDS011;3357;48.050;7.800;2023-12-14T12:18:06;2.20;;;1.87;;
6642;SDS011;3357;48.050;7.800;2023-12-14T12:20:32;1.73;;;1.63;;
6642;SDS011;3357;48.050;7.800;2023-12-14T12:22:58;1.80;;;1.70;;
6642;SDS011;3357;48.050;7.800;2023-12-14T12:25:23;1.87;;;1.77;;
6642;SDS011;3357;48.050;7.800;2023-12-14T12:27:48;1.60;;;1.50;;
6642;SDS011;3357;48.050;7.800;2023-12-14T12:30:14;3.23;;;1.57;;
6642;SDS011;3357;48.050;7.800;2023-12-14T12:32:40;2.80;;;1.77;;
6642;SDS011;3357;48.050;7.800;2023-12-14T12:35:06;2.57;;;1.90;;
6642;SDS011;3357;48.050;7.800;2023-12-14T12:37:31;1.93;;;1.83;;
6642;SDS011;3357;48.050;7.800;2023-12-14T12:39:56;2.43;;;1.80;;
6642;SDS011;3357;48.050;7.800;2023-12-14T12:42:22;5.47;;;2.23;;
6642;SDS011;3357;48.050;7.800;2023-12-14T12:44:47;1.87;;;1.77;;
6642;SDS011;3357;48.050;7.800;2023-12-14T12:47:12;1.87;;;1.70;;
6642;SDS011;3357;48.050;7.800;2023-12-14T12:49:38;1.70;;;1.60;;
6642;SDS011;3357;48.050;7.800;2023-12-14T12:52:03;1.97;;;1.67;;
6642;SDS011;3357;48.050;7.800;2023-12-14T12:54:30;1.50;;;1.40;;
6642;SDS011;3357;48.050;7.800;2023-12-14T12:56:56;1.43;;;1.43;;
6642;SDS011;3357;48.050;7.800;2023-12-14T12:59:21;1.50;;;1.40;;
6642;SDS011;3357;48.050;7.800;2023-12-14T13:01:47;1.23;;;1.13;;
6642;SDS011;3357;48.050;7.800;2023-12-14T13:04:19;1.30;;;1.20;;
6642;SDS011;3357;48.050;7.800;2023-12-14T13:06:45;1.23;;;1.13;;
6642;SDS011;3357;48.050;7.800;2023-12-14T13:09:14;2.20;;;1.10;;
6642;SDS011;3357;48.050;7.800;2023-12-14T13:11:43;1.00;;;1.00;;
6642;SDS011;3357;48.050;7.800;2023-12-14T13:14:09;1.13;;;1.13;;
6642;SDS011;3357;48.050;7.800;2023-12-14T13:16:35;1.13;;;1.13;;
6642;SDS011;3357;48.050;7.800;2023-12-14T13:19:00;0.90;;;0.90;;
6642;SDS011;3357;48.050;7.800;2023-12-14T13:21:26;1.20;;;1.10;;
6642;SDS011;3357;48.050;7.800;2023-12-14T13:23:51;1.10;;;0.90;;
6642;SDS011;3357;48.050;7.800;2023-12-14T13:26:16;1.23;;;0.90;;
6642;SDS011;3357;48.050;7.800;2023-12-14T13:28:42;2.00;;;1.23;;
6642;SDS011;3357;48.050;7.800;2023-12-14T13:31:07;2.43;;;0.93;;
6642;SDS011;3357;48.050;7.800;2023-12-14T13:33:32;1.10;;;1.00;;
6642;SDS011;3357;48.050;7.800;2023-12-14T13:35:57;1.10;;;1.10;;
6642;SDS011;3357;48.050;7.800;2023-12-14T13:38:23;3.67;;;1.10;;
6642;SDS011;3357;48.050;7.800;2023-12-14T13:40:48;2.10;;;1.00;;
6642;SDS011;3357;48.050;7.800;2023-12-14T13:43:14;1.40;;;1.30;;
6642;SDS011;3357;48.050;7.800;2023-12-14T13:45:39;1.67;;;1.57;;
6642;SDS011;3357;48.050;7.800;2023-12-14T13:48:06;1.50;;;1.33;;
6642;SDS011;3357;48.050;7.800;2023-12-14T13:50:32;1.40;;;1.30;;
6642;SDS011;3357;48.050;7.800;2023-12-14T13:52:57;1.43;;;1.30;;
6642;SDS011;3357;48.050;7.800;2023-12-14T13:55:22;2.07;;;1.60;;
6642;SDS011;3357;48.050;7.800;2023-12-14T13:57:48;1.33;;;1.23;;
6642;SDS011;3357;48.050;7.800;2023-12-14T14:00:14;1.67;;;1.37;;
6642;SDS011;3357;48.050;7.800;2023-12-14T14:02:39;1.57;;;1.47;;
6642;SDS011;3357;48.050;7.800;2023-12-14T14:05:05;1.30;;;1.20;;
6642;SDS011;3357;48.050;7.800;2023-12-14T14:07:30;2.13;;;1.80;;
6642;SDS011;3357;48.050;7.800;2023-12-14T14:09:56;1.63;;;1.50;;
6642;SDS011;3357;48.050;7.800;2023-12-14T14:12:21;2.43;;;1.30;;
6642;SDS011;3357;48.050;7.800;2023-12-14T14:14:47;1.73;;;1.63;;
6642;SDS011;3357;48.050;7.800;2023-12-14T14:17:12;1.80;;;1.70;;
6642;SDS011;3357;48.050;7.800;2023-12-14T14:19:37;1.37;;;1.27;;
6642;SDS011;3357;48.050;7.800;2023-12-14T14:22:02;1.30;;;1.20;;
6642;SDS011;3357;48.050;7.800;2023-12-14T14:24:29;1.20;;;1.10;;
6642;SDS011;3357;48.050;7.800;2023-12-14T14:26:54;3.73;;;1.83;;
6642;SDS011;3357;48.050;7.800;2023-12-14T14:29:19;2.60;;;1.30;;
6642;SDS011;3357;48.050;7.800;2023-12-14T14:31:45;2.07;;;1.40;;
6642;SDS011;3357;48.050;7.800;2023-12-14T14:34:10;1.43;;;1.33;;
6642;SDS011;3357;48.050;7.800;2023-12-14T14:36:35;3.47;;;1.40;;
6642;SDS011;3357;48.050;7.800;2023-12-14T14:39:01;2.70;;;1.37;;
6642;SDS011;3357;48.050;7.800;2023-12-14T14:41:26;1.93;;;1.50;;
6642;SDS011;3357;48.050;7.800;2023-12-14T14:43:51;1.40;;;1.30;;
6642;SDS011;3357;48.050;7.800;2023-12-14T14:46:16;1.20;;;1.20;;
6642;SDS011;3357;48.050;7.800;2023-12-14T14:48:42;1.30;;;1.20;;
6642;SDS011;3357;48.050;7.800;2023-12-14T14:51:08;1.00;;;1.00;;
6642;SDS011;3357;48.050;7.800;2023-12-14T14:53:33;1.43;;;1.33;;
6642;SDS011;3357;48.050;7.800;2023-12-14T14:55:58;1.40;;;1.30;;
6642;SDS011;3357;48.050;7.800;2023-12-14T14:58:23;1.20;;;1.20;;
6642;SDS011;3357;48.050;7.800;2023-12-14T15:00:49;1.17;;;1.00;;
6642;SDS011;3357;48.050;7.800;2023-12-14T15:03:14;1.43;;;1.33;;
6642;SDS011;3357;48.050;7.800;2023-12-14T15:05:40;2.33;;;1.70;;
6642;SDS011;3357;48.050;7.800;2023-12-14T15:08:06;2.00;;;1.77;;
6642;SDS011;3357;48.050;7.800;2023-12-14T15:10:32;2.60;;;1.70;;
6642;SDS011;3357;48.050;7.800;2023-12-14T15:13:00;2.07;;;1.87;;